CheckWX is a tool to help pilots better visualize weather data.  It is not intended as a substitute for an official pre-flight weather briefing.

20:46:26 UTC

LIRA TAF
Ciampino–G. B. Pastine International Airport
Roma, Italy
TAF LIRA 091700Z 0918/1018 VRB05KT 9999 SCT040 BECMG 1003/1006 02012KT

Dec-9@
18:00 UTC

Dec-9 @ 18:00 UTC

Dec-10@
03:00 UTC

Dec-10 @ 03:00 UTC

TAF LIRA 091700Z 0918/1018 VRB05KT 9999 SCT040
Wind
  • Variable at 5 KTS
Cloud Levels
  • Scattered at 4,000' AGL

Dec-10@
03:00 UTC

Dec-10 @ 03:00 UTC

Dec-10@
18:00 UTC

Dec-10 @ 18:00 UTC

BECMG 1003/1006 02012KT

Becoming

Becoming Conditions expected by Tue, Dec 10, 2019 @ 06:00 UTC

Wind
  • 020° at 12 KTS
Cloud Levels
  • Scattered at 4,000' AGL